Mountain Village, Colorado
Current Conditions -  °F | °C
As of 1:15 AM on Sunday 21 Dec 2014 (Local Time) from KTEX Reporting Station
Overcast Overcast  
Wind Chill: 28°   Ceiling: 3500
Heat Index: 28°   Visibility: 10mi
Dew Point: 24°   Wind: 3mph
Humidity: 88%   Direction: 90°E
Pressure: 30.1"   Gusts: NA
Location:  37.9189°N, 107.878°W
Report Text: KTEX 210815Z AUTO 09003KT 10SM OVC035 M02/M04 A3010 RMK AO2 T10251042
Loading
Personal Weather Stations






























Interactive Weather Map New forecast layout! Learn more

10-Day Weather Forecast

Advertisements
Track Severe Weather on mobile